IGO1462 OMDB-VIDP
Flight info
| Callsign | IGO1462 |
|---|---|
| Flight time | N/A |
| Altitude | 39000 |
| Route | IVURO M428 MUNGA A777 VAXIM L301 RASKI L639 LAXOM J61 UUD A347 BUBNU BUBNU7C |
| Aircraft | A20N/M-SDE2E3FGHIRWXY/LB1 |
Departure
| Time | 2026-04-24 09:51 |
|---|---|
| Airport | Dubai International Airport (OMDB) |
Arrival
| Time | N/A |
|---|---|
| Airport | Indira Gandhi International Airport (VIDP) |
| Time | Latitude | Longitude | Altitude | Speed | Heading |
|---|---|---|---|---|---|
| 2026-04-24 09:21 | 25.25904 | 55.34402 | 21 ft | 0 kts | 211° |
| 2026-04-24 09:36 | 25.25915 | 55.34410 | 20 ft | 4 kts | 211° |
| 2026-04-24 09:36 | 25.25939 | 55.34425 | 21 ft | 4 kts | 211° |
| 2026-04-24 09:36 | 25.25962 | 55.34441 | 20 ft | 3 kts | 211° |
| 2026-04-24 09:37 | 25.25982 | 55.34453 | 21 ft | 4 kts | 193° |
| 2026-04-24 09:37 | 25.26007 | 55.34452 | 23 ft | 4 kts | 149° |
| 2026-04-24 09:37 | 25.26026 | 55.34432 | 21 ft | 4 kts | 120° |
| 2026-04-24 09:37 | 25.26036 | 55.34410 | 21 ft | 1 kts | 121° |
| 2026-04-24 09:38 | 25.26037 | 55.34410 | 20 ft | 1 kts | 121° |
| 2026-04-24 09:41 | 25.26026 | 55.34429 | 20 ft | 6 kts | 121° |
| 2026-04-24 09:42 | 25.26002 | 55.34474 | 20 ft | 9 kts | 121° |
| 2026-04-24 09:42 | 25.25960 | 55.34549 | 20 ft | 14 kts | 121° |
| 2026-04-24 09:42 | 25.25905 | 55.34652 | 20 ft | 17 kts | 121° |
| 2026-04-24 09:42 | 25.25833 | 55.34777 | 20 ft | 21 kts | 120° |
| 2026-04-24 09:43 | 25.25754 | 55.34916 | 20 ft | 17 kts | 123° |
| 2026-04-24 09:43 | 25.25770 | 55.35025 | 20 ft | 16 kts | 32° |
| 2026-04-24 09:43 | 25.25871 | 55.35083 | 20 ft | 18 kts | 32° |
| 2026-04-24 09:43 | 25.25981 | 55.35155 | 20 ft | 20 kts | 30° |
| 2026-04-24 09:44 | 25.26097 | 55.35235 | 20 ft | 18 kts | 32° |
| 2026-04-24 09:44 | 25.26105 | 55.35338 | 20 ft | 15 kts | 129° |
| 2026-04-24 09:44 | 25.26040 | 55.35445 | 22 ft | 19 kts | 121° |
| 2026-04-24 09:44 | 25.25964 | 55.35584 | 22 ft | 23 kts | 122° |
| 2026-04-24 09:45 | 25.25874 | 55.35746 | 21 ft | 26 kts | 120° |
| 2026-04-24 09:45 | 25.25774 | 55.35927 | 21 ft | 29 kts | 122° |
| 2026-04-24 09:45 | 25.25672 | 55.36112 | 21 ft | 26 kts | 122° |
| 2026-04-24 09:45 | 25.25570 | 55.36295 | 21 ft | 29 kts | 122° |
| 2026-04-24 09:46 | 25.25458 | 55.36496 | 23 ft | 32 kts | 121° |
| 2026-04-24 09:46 | 25.25341 | 55.36717 | 22 ft | 34 kts | 122° |
| 2026-04-24 09:46 | 25.25208 | 55.36943 | 22 ft | 36 kts | 121° |
| 2026-04-24 09:46 | 25.25079 | 55.37183 | 27 ft | 37 kts | 121° |
| 2026-04-24 09:47 | 25.24944 | 55.37425 | 30 ft | 36 kts | 120° |
| 2026-04-24 09:47 | 25.24835 | 55.37621 | 35 ft | 30 kts | 117° |
| 2026-04-24 09:47 | 25.24725 | 55.37818 | 39 ft | 31 kts | 121° |
| 2026-04-24 09:47 | 25.24617 | 55.38015 | 43 ft | 20 kts | 119° |
| 2026-04-24 09:48 | 25.24566 | 55.38104 | 45 ft | 15 kts | 123° |
| 2026-04-24 09:48 | 25.24512 | 55.38206 | 47 ft | 14 kts | 109° |
| 2026-04-24 09:48 | 25.24535 | 55.38268 | 48 ft | 0 kts | 32° |
| 2026-04-24 09:49 | 25.24537 | 55.38269 | 48 ft | 2 kts | 32° |
| 2026-04-24 09:49 | 25.24562 | 55.38287 | 48 ft | 7 kts | 33° |
| 2026-04-24 09:49 | 25.24613 | 55.38320 | 48 ft | 10 kts | 26° |
| 2026-04-24 09:50 | 25.24662 | 55.38293 | 47 ft | 8 kts | 293° |
| 2026-04-24 09:50 | 25.24674 | 55.38274 | 47 ft | 3 kts | 304° |
| 2026-04-24 09:50 | 25.24675 | 55.38272 | 47 ft | 0 kts | 304° |
| 2026-04-24 09:50 | 25.24713 | 55.38211 | 43 ft | 43 kts | 303° |
| 2026-04-24 09:51 | 25.25020 | 55.37657 | 33 ft | 123 kts | 302° |
| 2026-04-24 09:51 | 25.25576 | 55.36657 | 50 ft | 176 kts | 302° |
| 2026-04-24 09:51 | 25.26108 | 55.35466 | 867 ft | 166 kts | 301° |
| 2026-04-24 09:51 | 25.26646 | 55.34355 | 1810 ft | 161 kts | 302° |
| 2026-04-24 09:52 | 25.27219 | 55.33274 | 2612 ft | 168 kts | 305° |
| 2026-04-24 09:52 | 25.27886 | 55.32159 | 3325 ft | 182 kts | 306° |
| 2026-04-24 09:52 | 25.28641 | 55.30922 | 3990 ft | 207 kts | 304° |
| 2026-04-24 09:52 | 25.29583 | 55.29661 | 4938 ft | 214 kts | 325° |
| 2026-04-24 09:53 | 25.30929 | 55.29172 | 6262 ft | 209 kts | 357° |
| 2026-04-24 09:53 | 25.32427 | 55.29249 | 7209 ft | 219 kts | 3° |
| 2026-04-24 09:53 | 25.33952 | 55.29417 | 8122 ft | 226 kts | 3° |
| 2026-04-24 09:53 | 25.35524 | 55.29562 | 9199 ft | 230 kts | 1° |
| 2026-04-24 09:54 | 25.37198 | 55.29664 | 9901 ft | 252 kts | 359° |
| 2026-04-24 09:54 | 25.39010 | 55.29850 | 10574 ft | 271 kts | 14° |
| 2026-04-24 09:54 | 25.40672 | 55.30871 | 11541 ft | 280 kts | 42° |
| 2026-04-24 09:54 | 25.41981 | 55.32488 | 12354 ft | 296 kts | 50° |
| 2026-04-24 09:55 | 25.43322 | 55.34369 | 12877 ft | 320 kts | 52° |
| 2026-04-24 09:55 | 25.44737 | 55.36391 | 13332 ft | 345 kts | 52° |
| 2026-04-24 09:55 | 25.45628 | 55.37951 | 13604 ft | 362 kts | 65° |
| 2026-04-24 09:55 | 25.46284 | 55.40648 | 14068 ft | 377 kts | 87° |
| 2026-04-24 09:56 | 25.46110 | 55.43546 | 14872 ft | 381 kts | 101° |
| 2026-04-24 09:56 | 25.45548 | 55.46442 | 15679 ft | 387 kts | 105° |
| 2026-04-24 09:56 | 25.44902 | 55.49358 | 16485 ft | 394 kts | 105° |
| 2026-04-24 09:56 | 25.44267 | 55.52360 | 17287 ft | 401 kts | 103° |
| 2026-04-24 09:57 | 25.43482 | 55.56397 | 18293 ft | 409 kts | 102° |
| 2026-04-24 09:57 | 25.43103 | 55.58457 | 18775 ft | 412 kts | 102° |
| 2026-04-24 09:57 | 25.42534 | 55.61616 | 19568 ft | 414 kts | 102° |
| 2026-04-24 09:57 | 25.41983 | 55.64708 | 20309 ft | 418 kts | 102° |
| 2026-04-24 09:58 | 25.41418 | 55.67879 | 21053 ft | 422 kts | 102° |
| 2026-04-24 09:58 | 25.40844 | 55.71080 | 21766 ft | 426 kts | 102° |
| 2026-04-24 09:58 | 25.40263 | 55.74307 | 22503 ft | 430 kts | 102° |
| 2026-04-24 09:58 | 25.39676 | 55.77558 | 23214 ft | 434 kts | 103° |
| 2026-04-24 09:59 | 25.39080 | 55.80847 | 23831 ft | 438 kts | 103° |
| 2026-04-24 09:59 | 25.38478 | 55.84166 | 24406 ft | 443 kts | 103° |
| 2026-04-24 09:59 | 25.37869 | 55.87519 | 24983 ft | 447 kts | 103° |
| 2026-04-24 09:59 | 25.37253 | 55.90904 | 25531 ft | 451 kts | 102° |
| 2026-04-24 10:00 | 25.36631 | 55.94317 | 26089 ft | 455 kts | 102° |
| 2026-04-24 10:00 | 25.36003 | 55.97762 | 26623 ft | 459 kts | 102° |
| 2026-04-24 10:00 | 25.35369 | 56.01230 | 27142 ft | 464 kts | 102° |
| 2026-04-24 10:00 | 25.34725 | 56.04755 | 27674 ft | 468 kts | 102° |
| 2026-04-24 10:01 | 25.34077 | 56.08287 | 28243 ft | 471 kts | 102° |
| 2026-04-24 10:01 | 25.33425 | 56.11847 | 28732 ft | 475 kts | 102° |
| 2026-04-24 10:01 | 25.32693 | 56.15422 | 29215 ft | 479 kts | 107° |
| 2026-04-24 10:01 | 25.31630 | 56.18916 | 29706 ft | 482 kts | 111° |
| 2026-04-24 10:02 | 25.30473 | 56.22407 | 30141 ft | 486 kts | 111° |
| 2026-04-24 10:02 | 25.29313 | 56.25930 | 30530 ft | 490 kts | 111° |
| 2026-04-24 10:02 | 25.28147 | 56.29482 | 30919 ft | 494 kts | 111° |
| 2026-04-24 10:02 | 25.26973 | 56.33055 | 31372 ft | 496 kts | 111° |
| 2026-04-24 10:03 | 25.25796 | 56.36635 | 31885 ft | 496 kts | 110° |
| 2026-04-24 10:03 | 25.24616 | 56.40215 | 32419 ft | 496 kts | 110° |
| 2026-04-24 10:03 | 25.23435 | 56.43793 | 32936 ft | 496 kts | 110° |
| 2026-04-24 10:03 | 25.22255 | 56.47362 | 33446 ft | 496 kts | 110° |
| 2026-04-24 10:04 | 25.21070 | 56.50946 | 33940 ft | 496 kts | 110° |
| 2026-04-24 10:04 | 25.19884 | 56.54525 | 34317 ft | 497 kts | 110° |
| 2026-04-24 10:04 | 25.18694 | 56.58114 | 34687 ft | 498 kts | 110° |
| 2026-04-24 10:04 | 25.17445 | 56.61679 | 35061 ft | 499 kts | 112° |
| 2026-04-24 10:05 | 25.16097 | 56.65221 | 35409 ft | 501 kts | 113° |
| 2026-04-24 10:05 | 25.14728 | 56.68758 | 35767 ft | 502 kts | 113° |
| 2026-04-24 10:05 | 25.13364 | 56.72304 | 36123 ft | 502 kts | 113° |
| 2026-04-24 10:05 | 25.12008 | 56.75857 | 36469 ft | 503 kts | 112° |
| 2026-04-24 10:06 | 25.10654 | 56.79425 | 36810 ft | 504 kts | 112° |
| 2026-04-24 10:06 | 25.07947 | 56.86579 | 37501 ft | 506 kts | 112° |
| 2026-04-24 10:06 | 25.06591 | 56.90158 | 37813 ft | 507 kts | 112° |
| 2026-04-24 10:07 | 25.05232 | 56.93745 | 38124 ft | 507 kts | 112° |
| 2026-04-24 10:07 | 25.03886 | 56.97293 | 38439 ft | 508 kts | 112° |
| 2026-04-24 10:07 | 25.02521 | 57.00889 | 38684 ft | 509 kts | 112° |
| 2026-04-24 10:08 | 24.99793 | 57.08065 | 38829 ft | 506 kts | 112° |
| 2026-04-24 10:08 | 24.97067 | 57.15221 | 38830 ft | 506 kts | 112° |
| 2026-04-24 10:09 | 24.94339 | 57.22369 | 38835 ft | 506 kts | 112° |
| 2026-04-24 10:09 | 24.91610 | 57.29511 | 38833 ft | 506 kts | 112° |
| 2026-04-24 10:10 | 24.88878 | 57.36650 | 38828 ft | 506 kts | 112° |
| 2026-04-24 10:10 | 24.86140 | 57.43789 | 38816 ft | 506 kts | 112° |
| 2026-04-24 10:11 | 24.83400 | 57.50924 | 38826 ft | 506 kts | 112° |
| 2026-04-24 10:11 | 24.80655 | 57.58060 | 38832 ft | 506 kts | 112° |
| 2026-04-24 10:12 | 24.77910 | 57.65183 | 38815 ft | 506 kts | 112° |
| 2026-04-24 10:12 | 24.75158 | 57.72312 | 38830 ft | 506 kts | 112° |
| 2026-04-24 10:13 | 24.72502 | 57.79480 | 38833 ft | 505 kts | 108° |
| 2026-04-24 10:13 | 24.70597 | 57.86842 | 38822 ft | 502 kts | 94° |
| 2026-04-24 10:13 | 24.70480 | 57.90701 | 38821 ft | 496 kts | 82° |
| 2026-04-24 10:14 | 24.71023 | 57.94364 | 38820 ft | 489 kts | 70° |
| 2026-04-24 10:14 | 24.72605 | 58.01639 | 38818 ft | 493 kts | 77° |
| 2026-04-24 10:15 | 24.73147 | 58.09185 | 38820 ft | 497 kts | 85° |
| 2026-04-24 10:15 | 24.73195 | 58.16788 | 38828 ft | 498 kts | 87° |
| 2026-04-24 10:16 | 24.73176 | 58.24411 | 38837 ft | 498 kts | 87° |
| 2026-04-24 10:16 | 24.73167 | 58.32032 | 38833 ft | 498 kts | 87° |
| 2026-04-24 10:17 | 24.73161 | 58.39646 | 38837 ft | 498 kts | 87° |
| 2026-04-24 10:17 | 24.73153 | 58.47259 | 38832 ft | 498 kts | 87° |
| 2026-04-24 10:18 | 24.73140 | 58.54874 | 38832 ft | 498 kts | 87° |
| 2026-04-24 10:18 | 24.73124 | 58.62489 | 38828 ft | 498 kts | 87° |
| 2026-04-24 10:19 | 24.73104 | 58.70086 | 38820 ft | 497 kts | 87° |
| 2026-04-24 10:19 | 24.73079 | 58.77700 | 38828 ft | 497 kts | 87° |
| 2026-04-24 10:20 | 24.73051 | 58.85290 | 38822 ft | 496 kts | 87° |
| 2026-04-24 10:20 | 24.73020 | 58.92882 | 38821 ft | 496 kts | 87° |
| 2026-04-24 10:21 | 24.72984 | 59.00462 | 38821 ft | 496 kts | 87° |
| 2026-04-24 10:21 | 24.72945 | 59.08047 | 38820 ft | 495 kts | 88° |
| 2026-04-24 10:22 | 24.72902 | 59.15626 | 38814 ft | 495 kts | 88° |
| 2026-04-24 10:22 | 24.72855 | 59.23192 | 38822 ft | 495 kts | 88° |
| 2026-04-24 10:23 | 24.72804 | 59.30755 | 38816 ft | 495 kts | 88° |
| 2026-04-24 10:23 | 24.72750 | 59.38272 | 38810 ft | 494 kts | 88° |
| 2026-04-24 10:24 | 24.72691 | 59.45883 | 38814 ft | 494 kts | 88° |
| 2026-04-24 10:24 | 24.72637 | 59.53437 | 38814 ft | 493 kts | 85° |
| 2026-04-24 10:24 | 24.73012 | 59.57157 | 38813 ft | 487 kts | 73° |
| 2026-04-24 10:25 | 24.74011 | 59.60626 | 38808 ft | 480 kts | 62° |
| 2026-04-24 10:25 | 24.76735 | 59.67317 | 38807 ft | 479 kts | 60° |
| 2026-04-24 10:26 | 24.79438 | 59.74019 | 38811 ft | 480 kts | 62° |
| 2026-04-24 10:26 | 24.82071 | 59.80774 | 38809 ft | 480 kts | 62° |
| 2026-04-24 10:27 | 24.84682 | 59.87538 | 38814 ft | 480 kts | 62° |
| 2026-04-24 10:27 | 24.87289 | 59.94300 | 38814 ft | 481 kts | 62° |
| 2026-04-24 10:28 | 24.89905 | 60.01093 | 38811 ft | 481 kts | 63° |
| 2026-04-24 10:28 | 24.92513 | 60.07877 | 38812 ft | 481 kts | 63° |
| 2026-04-24 10:29 | 24.95116 | 60.14659 | 38811 ft | 481 kts | 63° |
| 2026-04-24 10:29 | 24.97715 | 60.21444 | 38813 ft | 480 kts | 63° |
| 2026-04-24 10:30 | 25.00308 | 60.28232 | 38814 ft | 480 kts | 63° |
| 2026-04-24 10:30 | 25.02892 | 60.35005 | 38815 ft | 480 kts | 63° |
| 2026-04-24 10:31 | 25.05475 | 60.41786 | 38811 ft | 479 kts | 63° |
| 2026-04-24 10:31 | 25.08054 | 60.48570 | 38808 ft | 479 kts | 63° |
| 2026-04-24 10:32 | 25.10625 | 60.55340 | 38808 ft | 478 kts | 63° |
| 2026-04-24 10:32 | 25.13189 | 60.62107 | 38805 ft | 478 kts | 63° |
| 2026-04-24 10:33 | 25.15745 | 60.68861 | 38805 ft | 477 kts | 63° |
| 2026-04-24 10:33 | 25.18303 | 60.75632 | 38797 ft | 477 kts | 63° |
| 2026-04-24 10:34 | 25.20853 | 60.82391 | 38799 ft | 477 kts | 63° |
| 2026-04-24 10:34 | 25.23394 | 60.89140 | 38794 ft | 476 kts | 63° |
| 2026-04-24 10:35 | 25.25935 | 60.95898 | 38793 ft | 476 kts | 63° |
| 2026-04-24 10:35 | 25.28474 | 61.02662 | 38793 ft | 476 kts | 63° |
| 2026-04-24 10:36 | 25.31006 | 61.09418 | 38787 ft | 476 kts | 63° |
| 2026-04-24 10:36 | 25.33534 | 61.16175 | 38786 ft | 475 kts | 63° |
| 2026-04-24 10:37 | 25.36058 | 61.22933 | 38783 ft | 475 kts | 63° |
| 2026-04-24 10:37 | 25.38576 | 61.29685 | 38781 ft | 475 kts | 63° |
| 2026-04-24 10:38 | 25.41089 | 61.36436 | 38775 ft | 475 kts | 63° |
| 2026-04-24 10:38 | 25.43598 | 61.43186 | 38772 ft | 474 kts | 63° |
| 2026-04-24 10:39 | 25.46103 | 61.49938 | 38771 ft | 474 kts | 63° |
| 2026-04-24 10:39 | 25.48603 | 61.56685 | 38772 ft | 473 kts | 63° |
| 2026-04-24 10:40 | 25.51096 | 61.63426 | 38762 ft | 473 kts | 64° |
| 2026-04-24 10:40 | 25.53584 | 61.70165 | 38767 ft | 473 kts | 64° |
| 2026-04-24 10:41 | 25.56068 | 61.76904 | 38763 ft | 472 kts | 64° |
| 2026-04-24 10:41 | 25.58528 | 61.83588 | 38756 ft | 472 kts | 64° |
| 2026-04-24 10:42 | 25.61003 | 61.90323 | 38759 ft | 471 kts | 64° |
| 2026-04-24 10:42 | 25.63470 | 61.97051 | 38757 ft | 471 kts | 64° |
| 2026-04-24 10:43 | 25.65537 | 62.02694 | 38753 ft | 471 kts | 64° |